Time;durP1;ratioP1;P1;durP2;ratioP2;P2;SDS_P1;SDS_P2;PMS_P1;PMS_P2;Temp;Humidity;BMP_temperature;BMP_pressure;BME280_temperature;BME280_humidity;BME280_pressure;Samples;Min_cycle;Max_cycle;Signal;HPM_P1;HPM_P2
2022/01/13 00:00:44;;;;;;;45.13;24.57;;;;;;;2.43;100.00;104069.31;5190492;28;20525;-83
2022/01/13 00:03:16;;;;;;;68.20;23.63;;;;;;;2.44;100.00;104062.44;5206045;28;20404;-84
2022/01/13 00:05:47;;;;;;;82.47;24.23;;;;;;;2.36;100.00;104064.81;5210826;28;20022;-83
2022/01/13 00:08:18;;;;;;;89.80;26.97;;;;;;;2.39;100.00;104059.75;5202598;28;20486;-84
2022/01/13 00:10:50;;;;;;;102.83;25.67;;;;;;;2.18;100.00;104059.19;5192303;28;20501;-84
2022/01/13 00:13:30;;;;;;;83.00;26.03;;;;;;;2.27;100.00;104066.31;5191008;28;20034;-74
2022/01/13 00:19:06;;;;;;;50.80;24.00;;;;;;;2.45;100.00;104067.66;5194760;28;20031;-84
2022/01/13 00:21:48;;;;;;;46.90;23.53;;;;;;;2.53;100.00;104073.03;5193651;28;20089;-84
2022/01/13 00:24:20;;;;;;;58.63;21.93;;;;;;;2.44;100.00;104065.03;5211852;28;20680;-84
2022/01/13 00:26:53;;;;;;;57.63;25.80;;;;;;;2.37;100.00;104084.69;5210916;28;20049;-79
2022/01/13 00:29:29;;;;;;;46.47;24.50;;;;;;;2.37;100.00;104072.63;5209587;28;20034;-84
2022/01/13 00:32:00;;;;;;;85.67;25.53;;;;;;;2.38;100.00;104078.66;5211235;28;20034;-84
2022/01/13 00:34:31;;;;;;;73.67;21.90;;;;;;;2.40;100.00;104080.47;5211620;28;20083;-83
2022/01/13 00:37:03;;;;;;;71.10;22.70;;;;;;;2.32;100.00;104081.09;5212068;28;20037;-83
2022/01/13 00:39:35;;;;;;;80.73;22.90;;;;;;;2.22;100.00;104074.78;5211507;28;20033;-84
2022/01/13 00:42:06;;;;;;;69.23;23.57;;;;;;;2.34;100.00;104084.59;5207072;28;20064;-84
2022/01/13 00:44:38;;;;;;;79.00;23.83;;;;;;;2.28;100.00;104082.72;5210332;28;20445;-84
2022/01/13 00:47:10;;;;;;;48.13;23.67;;;;;;;2.32;100.00;104076.81;5198125;28;20069;-84
2022/01/13 00:49:42;;;;;;;56.70;24.43;;;;;;;2.35;100.00;104065.66;5189773;28;20038;-84
2022/01/13 00:52:14;;;;;;;48.00;23.87;;;;;;;2.35;100.00;104055.31;5204108;28;20034;-84
2022/01/13 00:54:45;;;;;;;51.13;24.07;;;;;;;2.27;100.00;104057.69;5210596;28;20030;-84
2022/01/13 00:57:16;;;;;;;77.17;24.17;;;;;;;2.18;100.00;104068.66;5239669;28;20026;-83
2022/01/13 00:59:47;;;;;;;52.47;22.50;;;;;;;2.26;100.00;104068.88;5212128;28;20038;-84
2022/01/13 01:02:19;;;;;;;34.93;21.27;;;;;;;2.32;100.00;104068.16;5196882;28;20393;-84
2022/01/13 01:04:50;;;;;;;48.13;20.47;;;;;;;2.31;100.00;104049.16;5190606;28;20535;-84
2022/01/13 01:07:21;;;;;;;47.53;21.10;;;;;;;2.28;100.00;104054.25;5189604;28;20177;-75
2022/01/13 01:09:55;;;;;;;44.67;20.57;;;;;;;2.20;100.00;104056.63;5191082;28;20037;-84
2022/01/13 01:12:26;;;;;;;53.93;21.17;;;;;;;2.20;100.00;104064.38;5204902;28;20072;-84
2022/01/13 01:14:58;;;;;;;35.40;21.43;;;;;;;2.28;100.00;104067.19;5210229;28;20046;-84
2022/01/13 01:17:30;;;;;;;57.50;20.80;;;;;;;2.20;100.00;104066.13;5210973;28;20029;-84
2022/01/13 01:20:07;;;;;;;47.97;19.57;;;;;;;2.18;100.00;104066.94;5210753;28;20026;-84
2022/01/13 01:22:54;;;;;;;37.80;21.20;;;;;;;2.17;100.00;104057.44;5193992;28;20031;-84
2022/01/13 01:28:01;;;;;;;40.55;18.67;;;;;;;2.06;100.00;104043.31;5189459;28;20414;-84
2022/01/13 01:30:39;;;;;;;42.63;19.00;;;;;;;2.09;100.00;104071.88;5190612;28;20035;-84
2022/01/13 01:33:15;;;;;;;51.97;19.37;;;;;;;2.11;100.00;104072.75;5192862;28;20042;-84
2022/01/13 01:35:48;;;;;;;43.03;20.60;;;;;;;2.09;100.00;104066.69;5190402;28;20038;-84
2022/01/13 01:38:21;;;;;;;43.23;18.00;;;;;;;2.01;100.00;104070.75;5190405;28;20057;-84
2022/01/13 01:40:52;;;;;;;53.87;19.60;;;;;;;1.98;100.00;104070.66;5173995;28;20121;-84
2022/01/13 01:43:25;;;;;;;43.80;19.47;;;;;;;1.97;100.00;104074.09;5204065;28;20732;-84
2022/01/13 01:45:57;;;;;;;45.40;19.37;;;;;;;1.80;100.00;104066.72;5189707;28;20354;-84
2022/01/13 01:48:30;;;;;;;31.80;18.40;;;;;;;1.93;100.00;104058.50;5190188;28;20057;-84
2022/01/13 01:51:04;;;;;;;46.97;18.03;;;;;;;1.87;100.00;104055.72;5196316;28;20070;-84
2022/01/13 01:53:35;;;;;;;48.15;17.52;;;;;;;1.97;100.00;104058.59;5210414;28;20393;-84
2022/01/13 01:56:07;;;;;;;70.83;16.87;;;;;;;1.85;100.00;104052.22;5210642;28;20030;-85
2022/01/13 01:58:38;;;;;;;39.13;17.07;;;;;;;1.91;100.00;104060.16;5211151;28;20049;-84
2022/01/13 02:01:10;;;;;;;49.40;17.97;;;;;;;1.89;100.00;104042.84;5211530;28;20038;-84
2022/01/13 02:03:41;;;;;;;26.40;16.73;;;;;;;1.78;100.00;104027.91;5209764;28;20030;-84
2022/01/13 02:06:12;;;;;;;40.67;15.57;;;;;;;1.90;100.00;104055.81;5210386;28;20064;-83
2022/01/13 02:08:43;;;;;;;49.77;16.23;;;;;;;1.90;100.00;104040.28;5208362;28;20031;-83
2022/01/13 02:11:15;;;;;;;35.13;15.53;;;;;;;1.89;100.00;104042.84;5210063;28;20018;-84
2022/01/13 02:13:50;;;;;;;40.97;15.87;;;;;;;1.82;100.00;104044.38;5208923;28;20030;-84
2022/01/13 02:19:07;;;;;;;30.83;16.33;;;;;;;1.90;100.00;104058.38;5206596;28;20080;-84
2022/01/13 02:21:38;;;;;;;37.70;16.70;;;;;;;1.97;100.00;104054.28;5188986;28;20489;-84
2022/01/13 02:24:10;;;;;;;36.17;16.47;;;;;;;2.07;100.00;104060.59;5190171;28;20070;-84
2022/01/13 02:26:41;;;;;;;33.20;15.70;;;;;;;2.02;100.00;104057.00;5188743;28;20038;-84
2022/01/13 02:29:12;;;;;;;51.30;17.40;;;;;;;1.81;100.00;104068.47;5193283;28;20059;-84
2022/01/13 02:31:44;;;;;;;44.43;16.03;;;;;;;1.95;100.00;104070.59;5209774;28;20610;-84
2022/01/13 02:34:15;;;;;;;34.03;15.23;;;;;;;2.00;100.00;104069.00;5210083;28;20067;-84
2022/01/13 02:36:50;;;;;;;46.10;17.30;;;;;;;1.90;100.00;104058.38;5209764;28;20053;-84
2022/01/13 02:39:23;;;;;;;49.63;17.43;;;;;;;1.89;100.00;104067.00;5210931;28;20109;-79
2022/01/13 02:41:56;;;;;;;27.60;15.63;;;;;;;1.97;100.00;104063.75;5196603;28;20027;-84
2022/01/13 02:44:29;;;;;;;36.27;15.40;;;;;;;1.79;100.00;104045.19;5191961;28;20084;-83
2022/01/13 02:47:10;;;;;;;34.80;18.20;;;;;;;1.79;100.00;104045.19;5193907;28;20030;-83
2022/01/13 02:49:42;;;;;;;28.53;15.87;;;;;;;2.05;100.00;104054.50;5182709;28;20076;-84
2022/01/13 02:52:13;;;;;;;28.27;16.07;;;;;;;1.99;100.00;104044.00;5214555;28;20104;-84
2022/01/13 02:54:46;;;;;;;37.33;16.17;;;;;;;2.02;100.00;104052.72;5213300;28;20025;-84
2022/01/13 02:57:17;;;;;;;30.87;15.90;;;;;;;2.08;100.00;104067.50;5213713;28;20649;-84
2022/01/13 02:59:48;;;;;;;45.40;16.00;;;;;;;2.09;100.00;104052.88;5206072;28;20041;-84
2022/01/13 03:02:20;;;;;;;59.50;15.80;;;;;;;1.88;100.00;104039.41;5192968;28;20027;-84
2022/01/13 03:04:51;;;;;;;50.40;16.10;;;;;;;2.01;100.00;104065.56;5191746;28;20035;-77
2022/01/13 03:07:22;;;;;;;54.70;15.03;;;;;;;1.92;100.00;104061.91;5191389;28;20050;-82
2022/01/13 03:09:54;;;;;;;40.33;16.63;;;;;;;1.91;100.00;104065.34;5199579;28;20105;-84
2022/01/13 03:12:27;;;;;;;41.27;17.17;;;;;;;1.90;100.00;104058.38;5213103;28;20045;-83
2022/01/13 03:14:58;;;;;;;41.23;17.20;;;;;;;1.88;100.00;104047.16;5194095;28;20035;-84
2022/01/13 03:17:29;;;;;;;82.53;19.40;;;;;;;1.88;100.00;104039.41;5215351;28;20164;-84
2022/01/13 03:20:01;;;;;;;39.03;18.63;;;;;;;1.94;100.00;104038.69;5206245;28;20033;-84
2022/01/13 03:22:32;;;;;;;38.30;18.23;;;;;;;1.89;100.00;104030.81;5192228;28;20038;-83
2022/01/13 03:25:04;;;;;;;50.93;19.47;;;;;;;1.95;100.00;104039.56;5193034;28;20034;-84
2022/01/13 03:27:36;;;;;;;38.63;17.70;;;;;;;1.97;100.00;104032.72;5191622;28;20034;-75
2022/01/13 03:30:09;;;;;;;54.63;18.03;;;;;;;1.95;100.00;104036.97;5194102;28;20022;-84
2022/01/13 03:32:41;;;;;;;46.83;18.57;;;;;;;1.97;100.00;104027.56;5190939;28;20961;-84
2022/01/13 03:35:12;;;;;;;37.80;20.17;;;;;;;2.06;100.00;104040.72;5191461;28;20022;-83
2022/01/13 03:37:43;;;;;;;52.97;20.83;;;;;;;1.87;100.00;104022.13;5191054;28;20061;-77
2022/01/13 03:40:15;;;;;;;34.43;20.53;;;;;;;2.09;100.00;104035.66;5195907;28;20045;-84
2022/01/13 03:42:47;;;;;;;49.97;21.30;;;;;;;2.02;100.00;104038.91;5190425;28;20035;-83
2022/01/13 03:45:21;;;;;;;68.60;20.37;;;;;;;1.89;100.00;104030.81;5192219;28;20405;-83
2022/01/13 03:47:53;;;;;;;79.22;20.63;;;;;;;1.97;100.00;104027.56;5192770;28;20649;-83
2022/01/13 03:50:24;;;;;;;48.10;20.83;;;;;;;2.04;100.00;104032.94;5200215;28;20033;-84
2022/01/13 03:53:01;;;;;;;52.73;22.33;;;;;;;1.99;100.00;104033.66;5212454;28;20065;-83
2022/01/13 03:55:38;;;;;;;65.10;22.07;;;;;;;2.00;100.00;104032.81;5212589;28;20026;-83
2022/01/13 03:59:00;;;;;;;47.23;21.60;;;;;;;2.10;100.00;104029.66;5210650;28;20037;-83
2022/01/13 04:01:57;;;;;;;69.83;22.43;;;;;;;2.04;100.00;104038.09;5175080;28;20128;-84
2022/01/13 04:04:33;;;;;;;48.53;23.67;;;;;;;1.99;100.00;104025.91;5191718;28;20453;-83
2022/01/13 04:07:22;;;;;;;50.30;23.27;;;;;;;2.01;100.00;104027.69;5191905;28;20042;-83
2022/01/13 04:09:53;;;;;;;61.33;22.90;;;;;;;1.97;100.00;104032.72;5198595;28;20034;-83
2022/01/13 04:12:27;;;;;;;42.47;22.47;;;;;;;1.95;100.00;104029.22;5210359;28;20034;-83
2022/01/13 04:15:00;;;;;;;61.57;22.10;;;;;;;1.98;100.00;104024.13;5212145;28;20045;-83
2022/01/13 04:17:31;;;;;;;43.23;23.37;;;;;;;1.95;100.00;104012.00;5212448;28;20112;-83
2022/01/13 04:20:03;;;;;;;51.03;23.90;;;;;;;2.05;100.00;104015.72;5202399;28;20552;-83
2022/01/13 04:22:34;;;;;;;53.20;26.80;;;;;;;2.01;100.00;104013.88;5190200;28;20034;-83
2022/01/13 04:25:06;;;;;;;47.27;23.40;;;;;;;1.95;100.00;104014.59;5191427;28;20033;-83
2022/01/13 04:27:42;;;;;;;56.27;24.20;;;;;;;2.01;100.00;104026.78;5190936;28;20034;-83
2022/01/13 04:32:47;;;;;;;52.00;24.35;;;;;;;1.89;100.00;104023.03;5211772;28;20034;-81
2022/01/13 04:35:18;;;;;;;58.77;24.90;;;;;;;2.00;100.00;104025.94;5212085;28;20088;-81
2022/01/13 04:37:50;;;;;;;67.93;26.83;;;;;;;1.93;100.00;104016.25;5198268;28;20030;-83
2022/01/13 04:40:21;;;;;;;51.73;26.57;;;;;;;2.00;100.00;104014.72;5191245;28;20029;-77
2022/01/13 04:42:55;;;;;;;70.13;28.57;;;;;;;1.86;100.00;104004.88;5190186;28;20030;-83
2022/01/13 04:45:26;;;;;;;49.13;24.25;;;;;;;1.96;100.00;104013.75;5190897;28;20034;-80
2022/01/13 04:47:58;;;;;;;51.37;25.57;;;;;;;1.97;100.00;104006.88;5191669;28;20401;-83
2022/01/13 04:50:29;;;;;;;88.77;25.90;;;;;;;1.72;100.00;104004.47;5190280;28;20152;-83
2022/01/13 04:53:00;;;;;;;81.60;26.50;;;;;;;1.90;100.00;104016.16;5191400;28;20019;-84
2022/01/13 04:55:34;;;;;;;79.30;25.37;;;;;;;1.92;100.00;104017.09;5195034;28;20049;-83
2022/01/13 04:58:06;;;;;;;50.78;24.67;;;;;;;1.88;100.00;104017.84;5193344;28;20537;-83
2022/01/13 05:00:38;;;;;;;69.93;24.47;;;;;;;1.84;100.00;104008.22;5190806;28;20464;-83
2022/01/13 05:03:09;;;;;;;65.00;23.40;;;;;;;1.81;100.00;103998.69;5201335;28;20021;-84
2022/01/13 05:05:40;;;;;;;48.40;24.43;;;;;;;1.81;100.00;104002.16;5210829;28;20680;-83
2022/01/13 05:08:12;;;;;;;72.97;24.60;;;;;;;1.75;100.00;104007.13;5210687;28;20049;-83
2022/01/13 05:10:43;;;;;;;87.47;26.60;;;;;;;1.75;100.00;104014.88;5207244;28;20109;-83
2022/01/13 05:13:15;;;;;;;77.13;26.53;;;;;;;1.80;100.00;104015.00;5209703;28;20036;-84
2022/01/13 05:15:46;;;;;;;80.33;24.80;;;;;;;1.74;100.00;104020.03;5209078;28;20026;-83
2022/01/13 05:18:42;;;;;;;88.40;26.67;;;;;;;1.65;100.00;104010.28;5209758;28;20488;-83
2022/01/13 05:21:44;;;;;;;70.95;28.80;;;;;;;1.74;100.00;104017.44;5210637;28;20061;-83
2022/01/13 05:24:15;;;;;;;64.33;25.73;;;;;;;1.79;100.00;104013.28;5209841;28;20049;-83
2022/01/13 05:26:46;;;;;;;85.93;26.97;;;;;;;1.77;100.00;104009.75;5210377;28;20026;-83
2022/01/13 05:29:20;;;;;;;74.93;24.33;;;;;;;1.84;100.00;104019.44;5210197;28;20030;-83
2022/01/13 05:31:51;;;;;;;71.53;26.23;;;;;;;1.73;100.00;104013.13;5210521;28;20018;-74
2022/01/13 05:34:22;;;;;;;69.17;28.07;;;;;;;1.80;100.00;104020.19;5208256;28;20794;-83
2022/01/13 05:36:54;;;;;;;64.53;28.77;;;;;;;1.78;100.00;104009.81;5211236;28;20052;-83
2022/01/13 05:39:25;;;;;;;73.37;27.17;;;;;;;1.80;100.00;104020.19;5210080;28;20030;-83
2022/01/13 05:41:56;;;;;;;91.90;27.27;;;;;;;1.78;100.00;104027.91;5210838;28;20045;-83
2022/01/13 05:44:28;;;;;;;85.40;27.43;;;;;;;1.60;100.00;103992.06;5198764;28;20084;-83
2022/01/13 05:46:59;;;;;;;66.43;26.93;;;;;;;1.75;100.00;104009.72;5190298;28;20030;-83
2022/01/13 05:49:30;;;;;;;66.87;27.07;;;;;;;1.78;100.00;104021.88;5189767;28;20084;-82
2022/01/13 05:52:03;;;;;;;65.80;29.80;;;;;;;1.72;100.00;104019.97;5189973;28;20026;-82
2022/01/13 05:54:34;;;;;;;68.13;28.60;;;;;;;1.68;100.00;104010.38;5201242;28;20033;-81
2022/01/13 05:57:06;;;;;;;83.00;30.43;;;;;;;1.71;100.00;104014.78;5233875;28;20397;-81
2022/01/13 05:59:37;;;;;;;91.37;29.73;;;;;;;1.63;100.00;104018.00;5188669;28;20508;-82
2022/01/13 06:02:08;;;;;;;56.40;28.57;;;;;;;1.74;100.00;104020.03;5195176;28;20120;-82
2022/01/13 06:04:40;;;;;;;55.60;29.37;;;;;;;1.76;100.00;104018.38;5199441;28;20033;-82
2022/01/13 06:07:11;;;;;;;80.50;30.57;;;;;;;1.71;100.00;104018.22;5241700;28;20137;-83
2022/01/13 06:09:43;;;;;;;97.20;30.30;;;;;;;1.67;100.00;104017.28;5235712;28;20022;-83
2022/01/13 06:12:16;;;;;;;62.97;28.83;;;;;;;1.59;100.00;104003.22;5189628;28;20026;-81
2022/01/13 06:14:47;;;;;;;92.87;27.47;;;;;;;1.71;100.00;104018.22;5189929;28;20026;-80
2022/01/13 06:17:18;;;;;;;81.83;29.10;;;;;;;1.64;100.00;104013.72;5190685;28;20386;-78
2022/01/13 06:19:50;;;;;;;133.57;29.03;;;;;;;1.65;100.00;104003.41;5197391;28;20493;-81
2022/01/13 06:22:22;;;;;;;68.30;29.83;;;;;;;1.61;100.00;104001.56;5198987;28;20041;-76
2022/01/13 06:24:54;;;;;;;77.97;27.63;;;;;;;1.68;100.00;104008.69;5197835;28;20026;-79
2022/01/13 06:27:25;;;;;;;93.93;28.50;;;;;;;1.66;100.00;104007.75;5197595;28;20040;-77
2022/01/13 06:29:56;;;;;;;85.97;30.07;;;;;;;1.63;100.00;103999.91;5200043;28;20500;-77
2022/01/13 06:32:28;;;;;;;119.27;30.00;;;;;;;1.68;100.00;103998.34;5200674;28;20076;-80
2022/01/13 06:34:59;;;;;;;85.60;30.80;;;;;;;1.75;100.00;104001.09;5201072;28;20030;-80
2022/01/13 06:37:30;;;;;;;82.10;28.63;;;;;;;1.69;100.00;103999.22;5194367;28;20551;-79
2022/01/13 06:40:04;;;;;;;68.03;28.13;;;;;;;1.76;100.00;103992.53;5210328;28;20088;-80
2022/01/13 06:42:35;;;;;;;94.90;28.30;;;;;;;1.70;100.00;103990.63;5192501;28;20076;-79
2022/01/13 06:45:10;;;;;;;105.90;31.23;;;;;;;1.72;100.00;104001.00;5207545;28;20026;-79
2022/01/13 06:47:42;;;;;;;79.20;28.33;;;;;;;1.74;100.00;104004.50;5198193;28;20539;-80
2022/01/13 06:50:13;;;;;;;75.90;28.00;;;;;;;1.81;100.00;104011.63;5209698;28;20030;-80
2022/01/13 06:52:47;;;;;;;64.50;28.73;;;;;;;1.79;100.00;104009.00;5209171;28;20080;-80
2022/01/13 06:55:18;;;;;;;63.33;28.67;;;;;;;1.80;100.00;104020.19;5207317;28;20041;-80
2022/01/13 06:57:49;;;;;;;76.73;27.00;;;;;;;1.79;100.00;104008.09;5209359;28;20030;-80
2022/01/13 07:00:22;;;;;;;92.83;25.90;;;;;;;1.81;100.00;104003.88;5212192;28;20030;-81
2022/01/13 07:02:56;;;;;;;120.23;24.70;;;;;;;1.66;100.00;103993.94;5230274;28;20492;-79
2022/01/13 07:05:27;;;;;;;105.17;26.23;;;;;;;1.76;100.00;104010.59;5218115;28;20481;-82
2022/01/13 07:07:58;;;;;;;136.37;26.33;;;;;;;1.75;100.00;104006.25;5195361;28;20084;-81
2022/01/13 07:10:29;;;;;;;99.70;28.30;;;;;;;1.74;100.00;104007.97;5191175;28;20049;-81
2022/01/13 07:13:01;;;;;;;90.03;26.63;;;;;;;1.75;100.00;104001.09;5200672;28;20182;-81
2022/01/13 07:15:32;;;;;;;51.23;24.80;;;;;;;1.79;100.00;103993.47;5197747;28;20030;-80
2022/01/13 07:18:03;;;;;;;67.43;27.90;;;;;;;1.71;100.00;103999.25;5197397;28;20032;-81
2022/01/13 07:20:35;;;;;;;76.43;28.50;;;;;;;1.84;100.00;104010.81;5198327;28;20366;-78
2022/01/13 07:23:06;;;;;;;134.33;25.43;;;;;;;1.80;100.00;104009.84;5199036;28;20046;-80
2022/01/13 07:25:38;;;;;;;119.33;25.77;;;;;;;1.75;100.00;104012.31;5193020;28;20030;-78
2022/01/13 07:28:10;;;;;;;104.03;23.47;;;;;;;1.69;100.00;104001.81;5199838;28;20742;-77
2022/01/13 07:30:41;;;;;;;97.20;26.47;;;;;;;1.69;100.00;104006.97;5205091;28;20064;-77
2022/01/13 07:33:12;;;;;;;69.37;24.83;;;;;;;1.74;100.00;104009.69;5210008;28;20061;-77
2022/01/13 07:35:44;;;;;;;116.93;26.00;;;;;;;1.70;100.00;104006.13;5207875;28;20026;-77
2022/01/13 07:38:15;;;;;;;81.73;26.73;;;;;;;1.69;100.00;104002.66;5203736;28;20026;-81
2022/01/13 07:40:47;;;;;;;65.43;24.73;;;;;;;1.79;100.00;104003.81;5208025;28;20389;-76
2022/01/13 07:43:23;;;;;;;74.80;27.40;;;;;;;1.82;100.00;104010.78;5205547;28;20033;-76
2022/01/13 07:45:55;;;;;;;71.63;23.77;;;;;;;1.87;100.00;104016.94;5206828;28;20060;-82
2022/01/13 07:48:26;;;;;;;62.27;22.90;;;;;;;1.82;100.00;103997.84;5210154;28;20483;-83
2022/01/13 07:50:57;;;;;;;65.43;24.23;;;;;;;1.74;100.00;104005.41;5208756;28;20046;-80
2022/01/13 07:53:28;;;;;;;77.13;24.87;;;;;;;1.78;100.00;104012.38;5208259;28;20029;-77
2022/01/13 07:56:00;;;;;;;62.17;23.37;;;;;;;1.80;100.00;104009.84;5202538;28;20040;-77
2022/01/13 07:58:33;;;;;;;55.43;22.77;;;;;;;1.82;100.00;104003.03;5204591;28;20033;-76
2022/01/13 08:01:04;;;;;;;89.57;23.87;;;;;;;1.88;100.00;104018.72;5205644;28;20041;-78
2022/01/13 08:03:36;;;;;;;69.60;24.30;;;;;;;1.84;100.00;104022.03;5209436;28;20487;-77
2022/01/13 08:06:07;;;;;;;64.77;22.93;;;;;;;1.89;100.00;104020.47;5210965;28;20022;-79
2022/01/13 08:08:39;;;;;;;83.53;25.17;;;;;;;1.92;100.00;104025.72;5208916;28;20038;-78
2022/01/13 08:11:11;;;;;;;77.20;23.97;;;;;;;1.85;100.00;104028.94;5207786;28;20046;-83
2022/01/13 08:13:43;;;;;;;86.80;23.93;;;;;;;1.90;100.00;104032.53;5205941;28;20536;-83
2022/01/13 08:16:16;;;;;;;88.30;23.00;;;;;;;1.87;100.00;104022.13;5208963;28;20752;-84
2022/01/13 08:21:37;;;;;;;84.60;23.23;;;;;;;1.88;100.00;104034.22;5207212;28;20033;-82
2022/01/13 08:24:09;;;;;;;73.00;22.70;;;;;;;1.74;100.00;104020.03;5210002;28;20018;-82
2022/01/13 08:26:40;;;;;;;89.40;24.30;;;;;;;1.86;100.00;104027.25;5208425;28;20033;-80
2022/01/13 08:29:12;;;;;;;69.47;23.43;;;;;;;1.90;100.00;104026.50;5207175;28;20025;-81
2022/01/13 08:31:45;;;;;;;65.47;22.23;;;;;;;1.89;100.00;104028.22;5209435;28;20013;-81
2022/01/13 08:34:16;;;;;;;61.03;24.43;;;;;;;1.92;100.00;104036.03;5210276;28;20048;-80
2022/01/13 08:36:47;;;;;;;66.10;21.83;;;;;;;1.87;100.00;104026.44;5209292;28;20029;-81
2022/01/13 08:39:19;;;;;;;82.83;22.80;;;;;;;1.95;100.00;104047.31;5207720;28;20740;-80
2022/01/13 08:41:51;;;;;;;124.80;25.63;;;;;;;1.87;100.00;104047.97;5207052;28;20075;-81
2022/01/13 08:44:22;;;;;;;89.87;23.47;;;;;;;1.71;100.00;104025.97;5204040;28;20566;-81
2022/01/13 08:46:53;;;;;;;105.17;24.23;;;;;;;1.83;100.00;104029.75;5209274;28;20034;-79
2022/01/13 08:49:24;;;;;;;103.97;22.63;;;;;;;1.85;100.00;104034.13;5207570;28;20050;-81
2022/01/13 08:51:56;;;;;;;108.00;24.80;;;;;;;1.92;100.00;104055.88;5209132;28;20055;-81
2022/01/13 08:54:27;;;;;;;102.33;23.93;;;;;;;1.75;100.00;104026.94;5209422;28;20034;-80
2022/01/13 08:56:59;;;;;;;96.20;24.67;;;;;;;1.90;100.00;104054.94;5207521;28;20072;-80
2022/01/13 08:59:31;;;;;;;118.53;25.43;;;;;;;1.90;100.00;104053.22;5207099;28;20066;-80
2022/01/13 09:02:02;;;;;;;91.60;25.10;;;;;;;1.92;100.00;104058.47;5208971;28;20064;-82
2022/01/13 09:04:34;;;;;;;77.77;24.13;;;;;;;2.02;100.00;104067.34;5207765;28;20026;-80
2022/01/13 09:07:05;;;;;;;94.53;25.33;;;;;;;2.06;100.00;104064.00;5209321;28;20154;-79
2022/01/13 09:09:36;;;;;;;77.10;24.90;;;;;;;1.98;100.00;104060.31;5207172;28;20396;-82
2022/01/13 09:12:08;;;;;;;74.00;24.23;;;;;;;2.08;100.00;104062.34;5205524;28;20026;-78
2022/01/13 09:14:41;;;;;;;62.33;23.57;;;;;;;2.10;100.00;104064.97;5207656;28;20041;-80
2022/01/13 09:17:20;;;;;;;79.77;23.83;;;;;;;2.07;100.00;104065.75;5209000;28;20034;-80
2022/01/13 09:19:52;;;;;;;71.93;24.77;;;;;;;2.11;100.00;104062.41;5205054;28;20018;-80
2022/01/13 09:22:23;;;;;;;106.23;23.17;;;;;;;2.01;100.00;104063.00;5207236;28;20559;-80
2022/01/13 09:24:54;;;;;;;92.40;23.40;;;;;;;2.04;100.00;104068.28;5208641;28;20030;-80
2022/01/13 09:27:25;;;;;;;59.53;21.97;;;;;;;2.11;100.00;104071.91;5206705;28;20057;-79
2022/01/13 09:29:57;;;;;;;90.53;23.60;;;;;;;2.05;100.00;104062.25;5213964;28;20065;-79
2022/01/13 09:32:28;;;;;;;122.37;24.67;;;;;;;1.97;100.00;104066.34;5208846;28;20108;-79
2022/01/13 09:34:59;;;;;;;101.10;24.80;;;;;;;2.00;100.00;104063.84;5208392;28;20520;-79
2022/01/13 09:37:31;;;;;;;77.47;23.20;;;;;;;2.11;100.00;104077.94;5208253;28;20029;-79
2022/01/13 09:40:05;;;;;;;108.53;23.10;;;;;;;2.05;100.00;104077.78;5207681;28;20061;-77
2022/01/13 09:42:40;;;;;;;90.00;23.92;;;;;;;2.10;100.00;104077.88;5206498;28;20431;-79
2022/01/13 09:45:13;;;;;;;80.57;25.90;;;;;;;2.11;100.00;104077.06;5208775;28;20030;-79
2022/01/13 09:47:46;;;;;;;98.20;25.43;;;;;;;1.98;100.00;104060.31;5203948;28;20036;-79
2022/01/13 09:50:20;;;;;;;54.27;22.67;;;;;;;2.17;100.00;104075.53;5204311;28;20477;-79
2022/01/13 09:52:51;;;;;;;83.33;24.30;;;;;;;2.10;100.00;104076.19;5205725;28;20026;-73
2022/01/13 09:55:24;;;;;;;69.03;23.30;;;;;;;2.13;100.00;104071.09;5207820;28;20048;-77
2022/01/13 09:58:00;;;;;;;61.47;21.83;;;;;;;2.23;100.00;104071.38;5208896;28;20029;-79
2022/01/13 10:00:31;;;;;;;101.33;22.33;;;;;;;2.13;100.00;104071.09;5208269;28;20021;-80
2022/01/13 10:03:11;;;;;;;122.03;24.50;;;;;;;2.22;100.00;104074.78;5202184;28;20087;-80
2022/01/13 10:05:58;;;;;;;134.47;24.73;;;;;;;2.20;100.00;104073.88;5203576;28;20109;-79
2022/01/13 10:09:02;;;;;;;73.40;26.03;;;;;;;2.22;100.00;104061.84;5205670;28;20042;-77
2022/01/13 10:11:40;;;;;;;118.23;23.00;;;;;;;2.13;100.00;104068.50;5158714;28;20105;-75
2022/01/13 10:16:57;;;;;;;123.45;24.95;;;;;;;2.16;100.00;104073.75;5205387;28;20084;-75
2022/01/13 10:19:30;;;;;;;72.90;21.93;;;;;;;2.26;100.00;104076.63;5208278;28;20038;-76
2022/01/13 10:22:03;;;;;;;111.03;24.10;;;;;;;2.16;100.00;104063.41;5206789;28;20480;-75
2022/01/13 10:24:37;;;;;;;104.53;22.77;;;;;;;2.21;100.00;104073.03;5207713;28;20540;-75
2022/01/13 10:27:15;;;;;;;91.03;23.37;;;;;;;2.25;100.00;104070.56;5206169;28;20480;-78
2022/01/13 10:30:15;;;;;;;90.20;24.23;;;;;;;2.35;100.00;104065.66;5204497;28;20018;-76
2022/01/13 10:32:47;;;;;;;81.93;22.97;;;;;;;2.33;100.00;104075.06;5195690;28;20050;-77
2022/01/13 10:35:21;;;;;;;57.43;23.60;;;;;;;2.36;100.00;104068.28;5205889;28;20807;-75
2022/01/13 10:37:58;;;;;;;52.13;21.70;;;;;;;2.45;100.00;104077.13;5204367;28;20034;-76
2022/01/13 10:40:34;;;;;;;66.43;22.70;;;;;;;2.39;100.00;104076.13;5203178;28;20037;-76
2022/01/13 10:43:09;;;;;;;66.37;21.43;;;;;;;2.40;100.00;104083.06;5203582;28;20048;-75
2022/01/13 10:45:46;;;;;;;67.50;22.37;;;;;;;2.36;100.00;104063.09;5207485;28;20692;-76
2022/01/13 10:48:23;;;;;;;65.53;20.27;;;;;;;2.44;100.00;104070.19;5210320;28;20399;-75
2022/01/13 10:50:54;;;;;;;81.03;21.77;;;;;;;2.37;100.00;104064.88;5210266;28;20034;-75
2022/01/13 10:53:31;;;;;;;54.60;19.77;;;;;;;2.41;100.00;104070.97;5206582;28;20022;-79
2022/01/13 10:56:11;;;;;;;58.50;22.20;;;;;;;2.38;100.00;104061.44;5199909;28;20037;-79
2022/01/13 10:58:49;;;;;;;79.23;26.73;;;;;;;2.41;100.00;104055.47;5198591;28;20060;-78
2022/01/13 11:01:21;;;;;;;73.70;23.10;;;;;;;2.40;100.00;104053.72;5211222;28;20485;-78
2022/01/13 11:03:54;;;;;;;89.73;23.17;;;;;;;2.39;100.00;104055.41;5208448;28;20045;-78
2022/01/13 11:06:28;;;;;;;68.80;21.97;;;;;;;2.42;100.00;104046.88;5209142;28;20041;-74
2022/01/13 11:09:00;;;;;;;64.72;21.05;;;;;;;2.39;100.00;104047.66;5208386;28;20037;-75
2022/01/13 11:11:35;;;;;;;65.90;22.23;;;;;;;2.25;100.00;104028.31;5203367;28;20028;-75
2022/01/13 11:14:14;;;;;;;65.65;22.60;;;;;;;2.47;100.00;104042.69;5203832;28;20477;-74
2022/01/13 11:16:45;;;;;;;66.47;21.27;;;;;;;2.40;100.00;104039.09;5195876;28;20149;-73
2022/01/13 11:19:19;;;;;;;77.10;21.03;;;;;;;2.45;100.00;104040.91;5198702;28;20044;-70
2022/01/13 11:21:51;;;;;;;48.13;21.77;;;;;;;2.45;100.00;104027.97;5199061;28;20033;-74
2022/01/13 11:24:23;;;;;;;51.70;19.20;;;;;;;2.54;100.00;104030.78;5200247;28;20026;-76
2022/01/13 11:26:55;;;;;;;55.10;20.13;;;;;;;2.46;100.00;104028.00;5196664;28;20037;-75
2022/01/13 11:29:28;;;;;;;59.97;23.50;;;;;;;2.48;100.00;104025.47;5198161;28;20030;-74
2022/01/13 11:32:00;;;;;;;54.40;21.73;;;;;;;2.47;100.00;104024.59;5198481;28;20054;-75
2022/01/13 11:34:31;;;;;;;48.40;21.73;;;;;;;2.59;100.00;104018.84;5199761;28;20555;-77
2022/01/13 11:37:03;;;;;;;70.70;21.97;;;;;;;2.55;100.00;104017.00;5199377;28;20038;-75
2022/01/13 11:39:45;;;;;;;73.10;20.37;;;;;;;2.58;100.00;104014.53;5197050;28;20049;-75
2022/01/13 11:42:18;;;;;;;66.27;21.90;;;;;;;2.48;100.00;104009.94;5198809;28;20188;-76
2022/01/13 11:45:11;;;;;;;56.70;22.37;;;;;;;2.61;100.00;104017.19;5198212;28;20055;-75
2022/01/13 11:47:44;;;;;;;44.50;21.60;;;;;;;2.60;100.00;104020.59;5198960;28;20449;-77
2022/01/13 11:50:24;;;;;;;58.80;23.30;;;;;;;2.56;100.00;104013.59;5197693;28;20154;-78
2022/01/13 11:52:55;;;;;;;49.27;22.20;;;;;;;2.60;100.00;104020.59;5200347;28;20034;-77